createdAt,value
2022-08-05T00:02:14.508Z,2.40
2022-08-05T00:05:05.861Z,2.00
2022-08-05T00:07:59.787Z,2.35
2022-08-05T00:10:48.307Z,2.20
2022-08-05T00:13:40.052Z,2.20
2022-08-05T00:16:35.700Z,2.35
2022-08-05T00:19:25.014Z,2.20
2022-08-05T00:22:21.000Z,2.17
2022-08-05T00:25:11.912Z,2.05
2022-08-05T00:28:00.024Z,2.13
2022-08-05T00:30:47.650Z,2.22
2022-08-05T00:34:54.673Z,2.30
2022-08-05T00:37:11.419Z,2.30
2022-08-05T00:39:58.308Z,2.08
2022-08-05T00:42:49.068Z,2.30
2022-08-05T00:45:42.877Z,2.50
2022-08-05T00:48:31.790Z,2.47
2022-08-05T00:51:51.504Z,1.95
2022-08-05T00:54:28.125Z,2.40
2022-08-05T00:57:17.502Z,2.28
2022-08-05T01:00:11.217Z,2.30
2022-08-05T01:03:00.787Z,2.15
2022-08-05T01:05:47.965Z,2.05
2022-08-05T01:08:42.935Z,2.40
2022-08-05T01:11:37.359Z,2.78
2022-08-05T01:14:28.023Z,2.53
2022-08-05T01:17:43.972Z,2.85
2022-08-05T01:20:37.343Z,2.70
2022-08-05T01:23:34.803Z,2.53
2022-08-05T01:26:46.566Z,2.85
2022-08-05T01:29:40.338Z,2.88
2022-08-05T01:32:33.742Z,2.60
2022-08-05T01:38:34.812Z,2.60
2022-08-05T01:41:25.677Z,2.80
2022-08-05T01:44:14.018Z,2.72
2022-08-05T01:47:05.219Z,2.70
2022-08-05T01:50:01.667Z,2.50
2022-08-05T01:52:51.398Z,2.50
2022-08-05T01:55:42.064Z,2.80
2022-08-05T01:58:40.926Z,2.50
2022-08-05T02:01:40.270Z,1.90
2022-08-05T02:04:35.095Z,2.88
2022-08-05T02:07:24.365Z,2.75
2022-08-05T02:10:17.683Z,2.67
2022-08-05T02:13:16.186Z,2.70
2022-08-05T02:16:30.384Z,2.60
2022-08-05T02:19:33.488Z,2.65
2022-08-05T02:22:27.169Z,2.28
2022-08-05T02:25:18.323Z,2.80
2022-08-05T02:28:08.804Z,2.58
2022-08-05T02:33:57.823Z,2.75
2022-08-05T02:36:50.674Z,2.90
2022-08-05T02:39:41.336Z,3.38
2022-08-05T02:45:24.192Z,2.80
2022-08-05T02:48:12.961Z,2.80
2022-08-05T02:51:02.240Z,2.90
2022-08-05T02:53:54.700Z,3.25
2022-08-05T02:56:45.965Z,2.90
2022-08-05T02:59:50.356Z,3.08
2022-08-05T03:02:40.712Z,2.60
2022-08-05T03:06:54.483Z,2.65
2022-08-05T03:08:42.609Z,2.97
2022-08-05T03:11:55.509Z,3.03
2022-08-05T03:14:45.707Z,3.00
2022-08-05T03:17:33.627Z,2.95
2022-08-05T03:20:28.923Z,2.90
2022-08-05T03:23:16.494Z,2.75
2022-08-05T03:26:30.999Z,2.80
2022-08-05T03:29:12.193Z,3.17
2022-08-05T03:32:00.471Z,3.08
2022-08-05T03:34:50.959Z,3.10
2022-08-05T03:40:33.318Z,3.40
2022-08-05T03:44:08.168Z,3.10
2022-08-05T03:46:32.988Z,3.27
2022-08-05T03:49:20.119Z,3.35
2022-08-05T03:52:49.266Z,3.05
2022-08-05T03:56:09.532Z,3.22
2022-08-05T03:58:37.879Z,3.05
2022-08-05T04:01:32.795Z,3.00
2022-08-05T04:04:21.543Z,2.80
2022-08-05T04:07:09.888Z,3.60
2022-08-05T04:09:57.739Z,3.03
2022-08-05T04:12:51.773Z,2.85
2022-08-05T04:15:39.529Z,3.25
2022-08-05T04:18:47.586Z,3.10
2022-08-05T04:22:09.955Z,3.10
2022-08-05T04:24:52.729Z,3.20
2022-08-05T04:27:43.579Z,3.10
2022-08-05T04:30:31.306Z,3.20
2022-08-05T04:33:54.394Z,2.67
2022-08-05T04:36:46.054Z,2.95
2022-08-05T04:39:35.203Z,3.33
2022-08-05T04:42:25.358Z,3.38
2022-08-05T04:45:14.117Z,3.03
2022-08-05T04:48:28.102Z,2.90
2022-08-05T04:51:15.636Z,3.13
2022-08-05T04:54:02.806Z,3.35
2022-08-05T04:56:50.081Z,3.08
2022-08-05T05:02:36.304Z,3.13
2022-08-05T05:05:30.467Z,2.97
2022-08-05T05:08:29.874Z,3.73
2022-08-05T05:11:17.624Z,3.05
2022-08-05T05:14:04.939Z,2.80
2022-08-05T05:16:55.847Z,2.88
2022-08-05T05:19:47.278Z,2.80
2022-08-05T05:22:35.467Z,2.83
2022-08-05T05:25:32.721Z,2.95
2022-08-05T05:28:27.876Z,2.58
2022-08-05T05:31:16.469Z,2.70
2022-08-05T05:34:06.157Z,2.40
2022-08-05T05:36:53.717Z,2.80
2022-08-05T05:39:41.720Z,3.00
2022-08-05T05:42:30.448Z,3.38
2022-08-05T05:45:18.809Z,3.50
2022-08-05T05:48:09.736Z,3.33
2022-08-05T05:50:57.913Z,3.20
2022-08-05T05:53:54.596Z,3.05
2022-08-05T05:56:46.004Z,3.28
2022-08-05T05:59:40.307Z,3.75
2022-08-05T06:02:36.759Z,3.35
2022-08-05T06:05:25.261Z,3.10
2022-08-05T06:08:14.171Z,3.33
2022-08-05T06:11:18.891Z,3.30
2022-08-05T06:14:07.554Z,3.47
2022-08-05T06:16:54.725Z,3.20
2022-08-05T06:19:45.317Z,3.13
2022-08-05T06:22:44.080Z,3.10
2022-08-05T06:26:12.376Z,2.53
2022-08-05T06:28:45.202Z,2.90
2022-08-05T06:31:33.579Z,2.70
2022-08-05T06:34:20.835Z,2.25
2022-08-05T06:37:08.502Z,2.38
2022-08-05T06:39:55.643Z,3.10
2022-08-05T06:42:42.803Z,2.42
2022-08-05T06:45:44.486Z,2.28
2022-08-05T06:48:55.659Z,2.60
2022-08-05T06:51:46.226Z,2.53
2022-08-05T06:54:33.847Z,2.40
2022-08-05T06:58:03.375Z,2.30
2022-08-05T07:00:31.363Z,2.40
2022-08-05T07:03:19.002Z,2.20
2022-08-05T07:06:14.240Z,2.25
2022-08-05T07:09:04.382Z,2.10
2022-08-05T07:11:52.261Z,2.10
2022-08-05T07:14:58.007Z,2.20
2022-08-05T07:18:00.753Z,2.00
2022-08-05T07:20:54.643Z,1.95
2022-08-05T07:23:49.093Z,1.95
2022-08-05T07:26:37.198Z,2.25
2022-08-05T07:29:25.409Z,1.88
2022-08-05T07:32:36.594Z,1.83
2022-08-05T07:36:05.299Z,1.98
2022-08-05T07:38:34.099Z,2.22
2022-08-05T07:42:13.794Z,2.17
2022-08-05T07:44:31.820Z,2.10
2022-08-05T07:47:19.364Z,2.00
2022-08-05T07:50:16.614Z,2.30
2022-08-05T07:53:04.343Z,2.03
2022-08-05T07:56:06.396Z,2.10
2022-08-05T07:58:59.543Z,2.00
2022-08-05T08:01:51.814Z,2.20
2022-08-05T08:04:49.485Z,2.03
2022-08-05T08:07:39.526Z,1.88
2022-08-05T08:10:44.605Z,1.80
2022-08-05T08:13:42.847Z,1.75
2022-08-05T08:20:22.150Z,1.88
2022-08-05T08:22:55.626Z,1.67
2022-08-05T08:25:59.732Z,17.83
2022-08-05T08:28:55.210Z,1.80
2022-08-05T08:31:48.261Z,1.80
2022-08-05T08:34:35.690Z,1.40
2022-08-05T08:37:27.997Z,1.55
2022-08-05T08:40:15.338Z,1.55
2022-08-05T08:45:19.600Z,1.50
2022-08-05T08:46:15.514Z,1.65
2022-08-05T08:50:05.992Z,1.80
2022-08-05T08:52:15.882Z,1.50
2022-08-05T08:55:04.245Z,1.60
2022-08-05T08:58:01.353Z,1.60
2022-08-05T09:00:51.506Z,1.45
2022-08-05T09:03:45.147Z,1.60
2022-08-05T09:06:32.734Z,1.80
2022-08-05T09:09:23.957Z,1.90
2022-08-05T09:12:20.639Z,1.90
2022-08-05T09:15:15.286Z,1.67
2022-08-05T09:18:02.454Z,1.90
2022-08-05T09:20:51.348Z,1.80
2022-08-05T09:23:43.554Z,1.80
2022-08-05T09:26:32.425Z,1.65
2022-08-05T09:29:19.953Z,1.55
2022-08-05T09:32:41.210Z,1.70
2022-08-05T09:35:26.577Z,1.42
2022-08-05T09:38:18.287Z,1.55
2022-08-05T09:41:08.619Z,1.52
2022-08-05T09:43:55.926Z,1.60
2022-08-05T09:46:51.948Z,1.77
2022-08-05T09:50:01.375Z,1.77
2022-08-05T09:52:58.543Z,1.60
2022-08-05T09:55:57.130Z,1.58
2022-08-05T09:59:16.855Z,1.58
2022-08-05T10:02:05.206Z,1.70
2022-08-05T10:04:53.590Z,1.60
2022-08-05T10:08:36.106Z,1.45
2022-08-05T10:11:16.647Z,1.92
2022-08-05T10:14:24.085Z,1.40
2022-08-05T10:17:37.268Z,1.55
2022-08-05T10:20:22.979Z,1.70
2022-08-05T10:23:55.176Z,1.40
2022-08-05T10:26:32.492Z,1.70
2022-08-05T10:30:05.801Z,1.60
2022-08-05T10:32:52.922Z,1.58
2022-08-05T10:35:40.646Z,1.67
2022-08-05T10:38:35.001Z,1.50
2022-08-05T10:41:46.768Z,1.83
2022-08-05T10:44:35.202Z,1.70
2022-08-05T10:47:31.923Z,1.60
2022-08-05T10:50:32.039Z,1.85
2022-08-05T10:53:51.715Z,2.40
2022-08-05T10:56:57.217Z,1.70
2022-08-05T11:00:03.709Z,1.70
2022-08-05T11:03:24.397Z,1.63
2022-08-05T11:06:17.863Z,1.92
2022-08-05T11:09:16.353Z,1.60
2022-08-05T11:12:04.648Z,1.70
2022-08-05T11:15:19.046Z,1.90
2022-08-05T11:18:14.168Z,1.90
2022-08-05T11:21:11.431Z,1.60
2022-08-05T11:24:14.870Z,1.85
2022-08-05T11:27:37.077Z,1.63
2022-08-05T11:30:55.855Z,1.63
2022-08-05T11:33:48.847Z,1.90
2022-08-05T11:36:55.702Z,1.50
2022-08-05T11:39:50.166Z,1.60
2022-08-05T11:42:47.638Z,1.83
2022-08-05T11:46:15.398Z,1.90
2022-08-05T11:48:56.598Z,1.60
2022-08-05T11:51:49.730Z,1.70
2022-08-05T11:54:38.267Z,1.80
2022-08-05T11:57:30.535Z,1.67
2022-08-05T12:00:31.353Z,1.92
2022-08-05T12:03:24.036Z,1.70
2022-08-05T12:06:21.918Z,1.67
2022-08-05T12:09:19.779Z,1.83
2022-08-05T12:12:09.029Z,1.60
2022-08-05T12:14:57.281Z,1.50
2022-08-05T12:18:03.685Z,1.65
2022-08-05T12:20:52.063Z,1.90
2022-08-05T12:23:56.730Z,1.58
2022-08-05T12:26:52.819Z,1.40
2022-08-05T12:29:40.045Z,1.75
2022-08-05T12:32:27.315Z,1.63
2022-08-05T12:35:16.857Z,1.60
2022-08-05T12:38:10.209Z,1.70
2022-08-05T12:40:59.097Z,1.90
2022-08-05T12:43:55.892Z,1.50
2022-08-05T12:46:45.669Z,1.73
2022-08-05T12:50:03.630Z,1.67
2022-08-05T12:52:56.747Z,1.70
2022-08-05T12:55:46.560Z,1.58
2022-08-05T12:58:51.431Z,1.70
2022-08-05T13:02:02.434Z,1.40
2022-08-05T13:04:54.502Z,1.58
2022-08-05T13:07:59.767Z,1.80
2022-08-05T13:10:50.537Z,1.70
2022-08-05T13:16:47.477Z,1.70
2022-08-05T13:19:52.511Z,1.58
2022-08-05T13:22:43.242Z,1.60
2022-08-05T13:25:52.649Z,2.05
2022-08-05T13:28:43.895Z,1.60
2022-08-05T13:31:34.027Z,1.40
2022-08-05T13:34:38.805Z,1.50
2022-08-05T13:37:34.508Z,1.60
2022-08-05T13:40:31.406Z,1.70
2022-08-05T13:43:44.792Z,1.75
2022-08-05T13:46:50.597Z,1.52
2022-08-05T13:49:45.336Z,1.60
2022-08-05T13:52:35.323Z,1.45
2022-08-05T13:55:41.595Z,1.60
2022-08-05T13:58:30.748Z,1.85
2022-08-05T14:01:18.608Z,1.80
2022-08-05T14:04:41.200Z,1.60
2022-08-05T14:07:59.475Z,1.67
2022-08-05T14:10:41.834Z,1.40
2022-08-05T14:13:28.945Z,1.70
2022-08-05T14:16:19.570Z,1.58
2022-08-05T14:19:06.690Z,1.63
2022-08-05T14:22:09.925Z,1.50
2022-08-05T14:24:59.177Z,1.90
2022-08-05T14:27:48.382Z,1.70
2022-08-05T14:30:35.510Z,1.50
2022-08-05T14:33:24.052Z,1.75
2022-08-05T14:36:11.689Z,1.48
2022-08-05T14:38:59.083Z,1.80
2022-08-05T14:42:15.903Z,1.65
2022-08-05T14:44:57.274Z,1.52
2022-08-05T14:48:03.236Z,1.87
2022-08-05T14:50:53.370Z,1.90
2022-08-05T14:53:44.508Z,1.70
2022-08-05T14:56:32.019Z,1.98
2022-08-05T14:59:21.202Z,1.98
2022-08-05T15:02:15.942Z,2.03
2022-08-05T15:05:13.345Z,2.10
2022-08-05T15:08:11.543Z,2.00
2022-08-05T15:11:07.718Z,2.00
2022-08-05T15:13:55.955Z,2.20
2022-08-05T15:16:46.374Z,2.10
2022-08-05T15:19:34.247Z,2.03
2022-08-05T15:22:27.079Z,2.30
2022-08-05T15:25:15.058Z,2.00
2022-08-05T15:28:13.367Z,1.73
2022-08-05T15:31:03.702Z,2.47
2022-08-05T15:34:04.283Z,2.20
2022-08-05T15:36:53.557Z,1.95
2022-08-05T15:41:00.648Z,2.28
2022-08-05T15:42:55.072Z,2.20
2022-08-05T15:45:48.143Z,2.25
2022-08-05T15:48:52.729Z,2.13
2022-08-05T15:52:12.505Z,2.10
2022-08-05T15:54:54.048Z,2.28
2022-08-05T15:57:43.928Z,2.30
2022-08-05T16:00:48.141Z,2.40
2022-08-05T16:03:41.176Z,2.20
2022-08-05T16:06:28.483Z,2.20
2022-08-05T16:09:17.552Z,2.60
2022-08-05T16:12:09.685Z,2.50
2022-08-05T16:14:58.878Z,2.05
2022-08-05T16:17:49.694Z,2.30
2022-08-05T16:20:45.323Z,2.40
2022-08-05T16:23:54.036Z,2.30
2022-08-05T16:26:58.972Z,2.35
2022-08-05T16:29:50.141Z,2.28
2022-08-05T16:32:38.322Z,2.50
2022-08-05T16:35:28.570Z,2.20
2022-08-05T16:38:25.084Z,2.00
2022-08-05T16:41:21.616Z,2.33
2022-08-05T16:44:22.165Z,2.30
2022-08-05T16:47:28.595Z,2.20
2022-08-05T16:50:20.084Z,2.20
2022-08-05T16:53:12.340Z,2.80
2022-08-05T16:56:10.150Z,2.28
2022-08-05T16:59:00.838Z,2.35
2022-08-05T17:01:54.084Z,2.25
2022-08-05T17:04:43.547Z,2.30
2022-08-05T17:07:39.073Z,2.40
2022-08-05T17:10:30.529Z,2.40
2022-08-05T17:13:21.468Z,2.58
2022-08-05T17:16:33.323Z,2.38
2022-08-05T17:19:21.087Z,2.03
2022-08-05T17:22:08.471Z,2.53
2022-08-05T17:24:58.677Z,2.20
2022-08-05T17:27:47.478Z,2.22
2022-08-05T17:30:34.651Z,2.40
2022-08-05T17:33:39.024Z,2.45
2022-08-05T17:36:40.128Z,2.50
2022-08-05T17:39:34.239Z,2.25
2022-08-05T17:42:29.844Z,2.47
2022-08-05T17:45:25.152Z,2.30
2022-08-05T17:48:25.527Z,2.30
2022-08-05T17:51:12.780Z,2.35
2022-08-05T17:53:59.918Z,2.50
2022-08-05T17:56:49.082Z,2.45
2022-08-05T17:59:40.052Z,2.47
2022-08-05T18:02:27.466Z,2.70
2022-08-05T18:05:16.786Z,2.67
2022-08-05T18:08:04.685Z,2.70
2022-08-05T18:10:51.866Z,3.13
2022-08-05T18:13:43.689Z,3.03
2022-08-05T18:16:33.628Z,3.05
2022-08-05T18:19:23.054Z,3.08
2022-08-05T18:22:11.282Z,2.97
2022-08-05T18:24:58.803Z,2.90
2022-08-05T18:27:52.574Z,3.80
2022-08-05T18:30:40.315Z,3.50
2022-08-05T18:33:28.647Z,3.88
2022-08-05T18:36:35.531Z,4.35
2022-08-05T18:40:29.840Z,4.53
2022-08-05T18:42:30.247Z,4.82
2022-08-05T18:45:17.882Z,4.90
2022-08-05T18:48:06.994Z,4.70
2022-08-05T18:52:05.768Z,5.68
2022-08-05T18:54:24.364Z,4.82
2022-08-05T18:57:15.279Z,5.45
2022-08-05T19:00:13.356Z,5.50
2022-08-05T19:03:07.319Z,5.88
2022-08-05T19:06:12.135Z,5.75
2022-08-05T19:09:01.839Z,6.43
2022-08-05T19:12:01.022Z,5.50
2022-08-05T19:15:00.059Z,6.45
2022-08-05T19:20:56.183Z,7.07
2022-08-05T19:24:06.802Z,6.47
2022-08-05T19:26:55.230Z,7.20
2022-08-05T19:29:42.847Z,6.68
2022-08-05T19:32:30.017Z,6.65
2022-08-05T19:35:17.165Z,6.28
2022-08-05T19:38:09.464Z,6.15
2022-08-05T19:40:56.709Z,6.63
2022-08-05T19:44:06.822Z,5.80
2022-08-05T19:46:51.350Z,5.10
2022-08-05T19:49:38.602Z,5.10
2022-08-05T19:52:30.981Z,5.38
2022-08-05T19:56:14.878Z,5.35
2022-08-05T19:58:29.576Z,5.53
2022-08-05T20:01:21.696Z,5.03
2022-08-05T20:04:15.749Z,5.10
2022-08-05T20:07:03.208Z,5.13
2022-08-05T20:09:57.515Z,5.43
2022-08-05T20:12:49.107Z,4.07
2022-08-05T20:15:51.819Z,4.72
2022-08-05T20:18:43.507Z,5.07
2022-08-05T20:21:32.271Z,4.47
2022-08-05T20:24:20.437Z,5.13
2022-08-05T20:27:11.531Z,5.28
2022-08-05T20:29:59.073Z,5.38
2022-08-05T20:32:46.228Z,5.72
2022-08-05T20:35:33.478Z,5.88
2022-08-05T20:38:31.399Z,5.53
2022-08-05T20:41:23.993Z,6.07
2022-08-05T20:44:19.243Z,5.57
2022-08-05T20:47:17.507Z,5.82
2022-08-05T20:50:07.490Z,5.93
2022-08-05T20:52:54.933Z,5.32
2022-08-05T20:56:07.382Z,5.40
2022-08-05T20:58:51.797Z,5.30
2022-08-05T21:01:39.244Z,5.63
2022-08-05T21:04:26.981Z,5.35
2022-08-05T21:07:14.485Z,4.85
2022-08-05T21:10:01.631Z,4.47
2022-08-05T21:12:57.881Z,5.00
2022-08-05T21:15:56.355Z,4.88
2022-08-05T21:18:45.614Z,4.40
2022-08-05T21:21:39.339Z,4.13
2022-08-05T21:24:30.820Z,3.85
2022-08-05T21:27:18.057Z,4.10
2022-08-05T21:30:08.544Z,4.00
2022-08-05T21:32:56.082Z,3.90
2022-08-05T21:35:55.457Z,3.70
2022-08-05T21:38:46.254Z,3.65
2022-08-05T21:41:35.516Z,4.10
2022-08-05T21:44:26.949Z,3.90
2022-08-05T21:47:17.361Z,4.03
2022-08-05T21:50:22.186Z,4.20
2022-08-05T21:53:17.452Z,3.83
2022-08-05T21:56:16.286Z,4.00
2022-08-05T21:59:07.938Z,3.95
2022-08-05T22:02:09.947Z,3.67
2022-08-05T22:04:58.610Z,3.60
2022-08-05T22:07:59.504Z,3.50
2022-08-05T22:10:49.762Z,3.53
2022-08-05T22:14:19.488Z,3.08
2022-08-05T22:16:51.102Z,2.33
2022-08-05T22:20:02.477Z,2.33
2022-08-05T22:23:15.905Z,2.30
2022-08-05T22:26:24.722Z,2.40
2022-08-05T22:29:11.941Z,1.90
2022-08-05T22:32:03.169Z,1.90
2022-08-05T22:34:50.664Z,1.70
2022-08-05T22:37:58.968Z,1.85
2022-08-05T22:40:49.983Z,1.70
2022-08-05T22:43:41.915Z,2.05
2022-08-05T22:46:29.361Z,1.88
2022-08-05T22:50:17.622Z,1.83
2022-08-05T22:52:32.361Z,1.88
2022-08-05T22:55:22.811Z,1.70
2022-08-05T22:58:11.806Z,1.40
2022-08-05T23:01:02.000Z,1.67
2022-08-05T23:03:58.079Z,1.48
2022-08-05T23:06:47.756Z,1.40
2022-08-05T23:09:57.307Z,1.60
2022-08-05T23:12:43.832Z,1.50
2022-08-05T23:15:34.918Z,1.63
2022-08-05T23:18:22.880Z,1.45
2022-08-05T23:21:10.406Z,1.63
2022-08-05T23:23:57.550Z,1.70
2022-08-05T23:26:45.211Z,1.50
2022-08-05T23:29:35.037Z,1.48
2022-08-05T23:32:24.056Z,1.58
2022-08-05T23:35:11.618Z,1.70
2022-08-05T23:37:58.739Z,1.60
2022-08-05T23:40:49.981Z,1.70
2022-08-05T23:46:44.578Z,1.50
2022-08-05T23:49:35.592Z,1.50
2022-08-05T23:52:27.794Z,1.40
2022-08-05T23:55:15.690Z,1.60
2022-08-05T23:58:04.811Z,1.35
